Time;durP1;ratioP1;P1;durP2;ratioP2;P2;SDS_P1;SDS_P2;PMS_P1;PMS_P2;Temp;Humidity;BMP_temperature;BMP_pressure;BME280_temperature;BME280_humidity;BME280_pressure;Samples;Min_cycle;Max_cycle;Signal;HPM_P1;HPM_P2
2023/08/06 00:00:31;;;;;;;3.20;2.40;;;15.00;99.90;;;;;;5071887;28;20828;-69
2023/08/06 00:02:57;;;;;;;2.17;1.90;;;15.00;99.90;;;;;;5072582;28;20464;-68
2023/08/06 00:05:24;;;;;;;2.70;1.83;;;14.90;99.90;;;;;;5072442;28;20488;-68
2023/08/06 00:07:52;;;;;;;3.00;2.30;;;14.90;99.90;;;;;;5071886;28;20492;-68
2023/08/06 00:10:19;;;;;;;2.73;2.30;;;14.90;99.90;;;;;;5072410;28;20472;-69
2023/08/06 00:12:46;;;;;;;2.67;2.30;;;14.90;99.90;;;;;;5072269;28;20802;-69
2023/08/06 00:15:13;;;;;;;2.37;2.03;;;14.80;99.90;;;;;;5072405;28;20468;-68
2023/08/06 00:17:40;;;;;;;2.50;2.30;;;14.70;99.90;;;;;;5071765;28;20457;-68
2023/08/06 00:20:08;;;;;;;2.50;2.30;;;14.70;99.90;;;;;;5072506;28;20459;-68
2023/08/06 00:22:35;;;;;;;2.77;2.57;;;14.60;99.90;;;;;;5072080;28;20464;-69
2023/08/06 00:25:04;;;;;;;2.47;2.03;;;14.60;99.90;;;;;;5071889;28;21005;-68
2023/08/06 00:27:32;;;;;;;2.50;2.30;;;14.50;99.90;;;;;;5071524;28;20826;-68
2023/08/06 00:29:59;;;;;;;2.73;2.40;;;14.50;99.90;;;;;;5071939;28;20467;-68
2023/08/06 00:32:25;;;;;;;2.37;2.17;;;14.40;99.90;;;;;;5072005;28;20483;-68
2023/08/06 00:34:52;;;;;;;2.83;2.20;;;14.40;99.90;;;;;;5072084;28;20452;-68
2023/08/06 00:37:19;;;;;;;3.00;2.57;;;14.40;99.90;;;;;;5071749;28;20462;-68
2023/08/06 00:39:46;;;;;;;2.17;1.97;;;14.40;99.90;;;;;;5071186;28;20848;-68
2023/08/06 00:42:14;;;;;;;2.60;2.40;;;14.30;99.90;;;;;;5072005;28;20460;-68
2023/08/06 00:44:40;;;;;;;2.60;2.40;;;14.30;99.90;;;;;;5071546;28;20483;-68
2023/08/06 00:47:09;;;;;;;2.63;2.43;;;14.30;99.90;;;;;;5071665;28;20452;-68
2023/08/06 00:49:36;;;;;;;2.43;2.23;;;14.30;99.90;;;;;;5071186;28;20492;-68
2023/08/06 00:52:05;;;;;;;2.80;2.10;;;14.30;99.90;;;;;;5071624;28;20464;-68
2023/08/06 00:54:32;;;;;;;2.07;1.87;;;14.30;99.90;;;;;;5071324;28;20451;-68
2023/08/06 00:57:00;;;;;;;2.83;2.00;;;14.20;99.90;;;;;;5071349;28;20460;-68
2023/08/06 00:59:29;;;;;;;2.30;2.10;;;14.20;99.90;;;;;;5071088;28;20477;-69
2023/08/06 01:01:56;;;;;;;2.50;2.30;;;14.20;99.90;;;;;;5070656;28;20452;-68
2023/08/06 01:04:23;;;;;;;1.90;1.80;;;14.10;99.90;;;;;;5071285;28;20483;-68
2023/08/06 01:07:02;;;;;;;2.40;2.17;;;14.10;99.90;;;;;;5071099;28;20464;-68
2023/08/06 01:09:39;;;;;;;2.83;2.00;;;14.00;99.90;;;;;;5070839;28;20475;-68
2023/08/06 01:12:12;;;;;;;1.80;1.70;;;14.00;99.90;;;;;;5071233;28;20456;-68
2023/08/06 01:14:48;;;;;;;5.17;2.30;;;13.90;99.90;;;;;;5071138;28;20457;-68
2023/08/06 01:17:16;;;;;;;2.20;2.00;;;13.90;99.90;;;;;;5071033;28;20454;-68
2023/08/06 01:19:42;;;;;;;2.37;1.80;;;13.90;99.90;;;;;;5070638;28;20842;-68
2023/08/06 01:22:10;;;;;;;2.03;1.83;;;13.80;99.90;;;;;;5070845;28;20463;-68
2023/08/06 01:24:37;;;;;;;2.23;2.10;;;13.80;99.90;;;;;;5070734;28;20479;-69
2023/08/06 01:27:10;;;;;;;2.67;2.17;;;13.70;99.90;;;;;;5070840;28;20459;-68
2023/08/06 01:29:45;;;;;;;2.47;2.27;;;13.70;99.90;;;;;;5070431;28;20479;-68
2023/08/06 01:32:14;;;;;;;2.83;2.07;;;13.70;99.90;;;;;;5071206;28;20951;-68
2023/08/06 01:34:44;;;;;;;2.33;2.13;;;13.70;99.90;;;;;;5070795;28;20486;-68
2023/08/06 01:37:13;;;;;;;2.03;1.83;;;13.60;99.90;;;;;;5070750;28;20790;-68
2023/08/06 01:39:43;;;;;;;2.20;2.00;;;13.60;99.90;;;;;;5070286;28;20481;-68
2023/08/06 01:42:10;;;;;;;2.70;2.50;;;13.60;99.90;;;;;;5070647;28;20465;-68
2023/08/06 01:44:36;;;;;;;2.03;1.83;;;13.60;99.90;;;;;;5070494;28;20490;-68
2023/08/06 01:47:03;;;;;;;2.30;2.10;;;13.60;99.90;;;;;;5070368;28;20969;-68
2023/08/06 01:49:30;;;;;;;2.13;1.93;;;13.50;99.90;;;;;;5070128;28;20482;-68
2023/08/06 01:51:56;;;;;;;2.13;1.93;;;13.50;99.90;;;;;;5070576;28;20463;-68
2023/08/06 01:54:24;;;;;;;2.60;2.00;;;13.40;99.90;;;;;;5070578;28;20451;-68
2023/08/06 01:56:51;;;;;;;2.90;2.47;;;13.40;99.90;;;;;;5070292;28;20459;-68
2023/08/06 01:59:18;;;;;;;2.50;2.10;;;13.40;99.90;;;;;;5070034;28;20474;-68
2023/08/06 02:01:45;;;;;;;2.43;2.23;;;13.40;99.90;;;;;;5069965;28;20459;-68
2023/08/06 02:04:12;;;;;;;3.13;2.30;;;13.30;99.90;;;;;;5070214;28;20459;-68
2023/08/06 02:09:06;;;;;;;2.20;1.97;;;13.40;99.90;;;;;;5037989;28;20479;-72
2023/08/06 02:11:34;;;;;;;2.30;2.10;;;13.40;99.90;;;;;;5036472;28;20463;-72
2023/08/06 02:14:01;;;;;;;2.87;2.40;;;13.40;99.90;;;;;;5030183;28;20847;-72
2023/08/06 02:16:28;;;;;;;2.80;2.40;;;13.30;99.90;;;;;;5043895;28;20465;-72
2023/08/06 02:18:54;;;;;;;2.37;2.17;;;13.30;99.90;;;;;;5041663;28;20849;-72
2023/08/06 02:21:21;;;;;;;2.30;2.10;;;13.30;99.90;;;;;;5045754;28;20461;-72
2023/08/06 02:23:48;;;;;;;2.40;2.13;;;13.30;99.90;;;;;;5046407;28;20462;-72
2023/08/06 02:26:15;;;;;;;3.00;2.40;;;13.30;99.90;;;;;;5041856;28;20475;-72
2023/08/06 02:28:43;;;;;;;2.60;2.40;;;13.30;99.90;;;;;;5034877;28;20477;-71
2023/08/06 02:31:09;;;;;;;2.57;2.37;;;13.30;99.90;;;;;;5040976;28;20463;-72
2023/08/06 02:33:36;;;;;;;2.10;1.90;;;13.30;99.90;;;;;;5042428;28;20459;-73
2023/08/06 02:36:04;;;;;;;2.23;2.03;;;13.20;99.90;;;;;;5033806;28;20452;-73
2023/08/06 02:38:31;;;;;;;2.23;2.03;;;13.20;99.90;;;;;;5041666;28;20480;-72
2023/08/06 02:40:58;;;;;;;2.10;1.90;;;13.20;99.90;;;;;;5042055;28;20460;-73
2023/08/06 02:43:24;;;;;;;2.63;2.00;;;13.20;99.90;;;;;;5050278;28;20456;-73
2023/08/06 02:45:52;;;;;;;1.93;1.73;;;13.30;99.90;;;;;;5041740;28;20482;-73
2023/08/06 02:48:19;;;;;;;2.70;2.33;;;13.20;99.90;;;;;;5030214;28;20495;-73
2023/08/06 02:50:46;;;;;;;2.17;1.97;;;13.30;99.90;;;;;;5045557;28;20456;-73
2023/08/06 02:53:12;;;;;;;2.70;2.20;;;13.20;99.90;;;;;;5039296;28;20960;-73
2023/08/06 02:55:46;;;;;;;1.90;1.80;;;13.20;99.90;;;;;;5038310;28;20468;-73
2023/08/06 02:58:12;;;;;;;2.13;1.93;;;13.20;99.90;;;;;;5029580;28;20483;-73
2023/08/06 03:00:39;;;;;;;3.77;1.90;;;13.20;99.90;;;;;;5029792;28;20460;-73
2023/08/06 03:03:07;;;;;;;2.13;1.93;;;13.10;99.90;;;;;;5029861;28;20956;-73
2023/08/06 03:05:34;;;;;;;2.30;2.00;;;13.10;99.90;;;;;;5029577;28;20487;-73
2023/08/06 03:08:01;;;;;;;2.13;2.03;;;13.10;99.90;;;;;;5028732;28;20737;-73
2023/08/06 03:10:27;;;;;;;1.70;1.50;;;13.20;99.90;;;;;;5029619;28;20968;-73
2023/08/06 03:12:54;;;;;;;2.53;2.00;;;13.20;99.90;;;;;;5029887;28;20460;-73
2023/08/06 03:15:21;;;;;;;2.40;1.70;;;13.20;99.90;;;;;;5029877;28;20449;-72
2023/08/06 03:17:47;;;;;;;2.23;2.03;;;13.20;99.90;;;;;;5029143;28;20967;-73
2023/08/06 03:20:16;;;;;;;2.60;2.00;;;13.20;99.90;;;;;;5029711;28;20464;-73
2023/08/06 03:22:42;;;;;;;1.73;1.63;;;13.20;99.90;;;;;;5032219;28;20467;-73
2023/08/06 03:25:09;;;;;;;2.37;2.17;;;13.20;99.90;;;;;;5033212;28;21271;-73
2023/08/06 03:27:36;;;;;;;2.30;2.03;;;13.20;99.90;;;;;;5032630;28;20457;-73
2023/08/06 03:30:02;;;;;;;2.97;1.97;;;13.20;99.90;;;;;;5033245;28;20456;-73
2023/08/06 03:32:29;;;;;;;1.90;1.70;;;13.30;99.90;;;;;;5033283;28;20456;-73
2023/08/06 03:34:56;;;;;;;1.93;1.80;;;13.30;99.90;;;;;;5033219;28;20887;-73
2023/08/06 03:37:24;;;;;;;2.10;1.80;;;13.20;99.90;;;;;;5032744;28;20466;-73
2023/08/06 03:39:51;;;;;;;2.13;2.00;;;13.20;99.90;;;;;;5032878;28;20519;-73
2023/08/06 03:42:17;;;;;;;2.10;1.80;;;13.30;99.90;;;;;;5032984;28;20479;-73
2023/08/06 03:44:44;;;;;;;2.30;1.53;;;13.30;99.90;;;;;;5032833;28;20452;-73
2023/08/06 03:47:11;;;;;;;2.80;2.50;;;13.30;99.90;;;;;;5032676;28;20452;-73
2023/08/06 03:49:37;;;;;;;2.80;1.97;;;13.30;99.90;;;;;;5032400;28;20503;-73
2023/08/06 03:52:05;;;;;;;1.63;1.53;;;13.30;99.90;;;;;;5032821;28;20461;-72
2023/08/06 03:54:33;;;;;;;2.00;1.67;;;13.30;99.90;;;;;;5032880;28;20465;-72
2023/08/06 03:56:59;;;;;;;2.00;1.80;;;13.40;99.90;;;;;;5032833;28;20457;-73
2023/08/06 03:59:26;;;;;;;3.03;1.90;;;13.40;99.90;;;;;;5032243;28;20476;-72
2023/08/06 04:01:53;;;;;;;2.87;2.00;;;13.30;99.90;;;;;;5032835;28;20470;-73
2023/08/06 04:04:20;;;;;;;2.30;2.10;;;13.40;99.90;;;;;;5032397;28;20479;-72
2023/08/06 04:06:46;;;;;;;1.60;1.40;;;13.40;99.90;;;;;;5032472;28;20503;-72
2023/08/06 04:09:14;;;;;;;1.80;1.63;;;13.40;99.90;;;;;;5031823;28;20472;-73
2023/08/06 04:11:42;;;;;;;1.93;1.83;;;13.40;99.90;;;;;;5032641;28;20465;-72
2023/08/06 04:14:08;;;;;;;2.23;1.97;;;13.50;99.90;;;;;;5032565;28;20536;-73
2023/08/06 04:16:35;;;;;;;2.27;2.07;;;13.50;99.90;;;;;;5032426;28;20463;-73
2023/08/06 04:19:02;;;;;;;4.30;1.83;;;13.40;99.90;;;;;;5031892;28;20624;-73
2023/08/06 04:21:28;;;;;;;2.43;1.77;;;13.40;99.90;;;;;;5032255;28;20463;-73
2023/08/06 04:23:55;;;;;;;2.03;1.57;;;13.50;99.90;;;;;;5032484;28;20453;-73
2023/08/06 04:26:22;;;;;;;3.60;1.60;;;13.50;99.90;;;;;;5031897;28;20872;-73
2023/08/06 04:28:50;;;;;;;1.73;1.63;;;13.50;99.90;;;;;;5031993;28;20487;-72
2023/08/06 04:31:17;;;;;;;2.60;1.80;;;13.50;99.90;;;;;;5032061;28;20466;-72
2023/08/06 04:33:43;;;;;;;1.70;1.37;;;13.60;99.90;;;;;;5031501;28;20454;-73
2023/08/06 04:36:10;;;;;;;1.70;1.60;;;13.60;99.90;;;;;;5031668;28;20462;-72
2023/08/06 04:38:38;;;;;;;1.57;1.47;;;13.60;99.90;;;;;;5031688;28;21678;-73
2023/08/06 04:41:05;;;;;;;1.47;1.37;;;13.60;99.90;;;;;;5032036;28;20989;-72
2023/08/06 04:43:31;;;;;;;1.77;1.60;;;13.60;99.90;;;;;;5031869;28;20458;-73
2023/08/06 04:46:02;;;;;;;1.63;1.53;;;13.60;99.90;;;;;;5031550;28;20476;-73
2023/08/06 04:48:29;;;;;;;2.53;1.63;;;13.60;99.90;;;;;;5031176;28;20483;-73
2023/08/06 04:50:56;;;;;;;2.80;1.87;;;13.60;99.90;;;;;;5032025;28;20532;-72
2023/08/06 04:53:22;;;;;;;1.63;1.33;;;13.60;99.90;;;;;;5050555;28;20455;-72
2023/08/06 04:55:49;;;;;;;1.87;1.70;;;13.60;99.90;;;;;;5045840;28;20459;-73
2023/08/06 04:58:16;;;;;;;1.70;1.40;;;13.70;99.90;;;;;;5032852;28;20862;-72
2023/08/06 05:00:43;;;;;;;2.70;1.60;;;13.60;99.90;;;;;;5051597;28;20458;-72
2023/08/06 05:03:11;;;;;;;4.70;2.37;;;13.70;99.90;;;;;;5035133;28;20456;-72
2023/08/06 05:05:38;;;;;;;1.80;1.30;;;13.80;99.90;;;;;;5047253;28;20480;-72
2023/08/06 05:08:04;;;;;;;1.47;1.37;;;13.80;99.90;;;;;;5038608;28;20492;-72
2023/08/06 05:10:31;;;;;;;1.97;1.50;;;13.80;99.90;;;;;;5039698;28;20453;-73
2023/08/06 05:12:58;;;;;;;2.30;1.30;;;13.80;99.90;;;;;;5031418;28;20457;-72
2023/08/06 05:15:25;;;;;;;1.00;0.90;;;13.80;99.90;;;;;;5030865;28;20448;-72
2023/08/06 05:17:51;;;;;;;2.20;1.50;;;13.80;99.90;;;;;;5030452;28;20484;-72
2023/08/06 05:20:20;;;;;;;3.00;1.40;;;13.80;99.90;;;;;;5030685;28;20464;-72
2023/08/06 05:22:47;;;;;;;2.10;1.20;;;13.80;99.90;;;;;;5030976;28;20484;-72
2023/08/06 05:25:15;;;;;;;1.73;1.03;;;13.70;99.90;;;;;;5030889;28;20458;-72
2023/08/06 05:27:41;;;;;;;1.40;1.07;;;13.70;99.90;;;;;;5030400;28;20496;-72
2023/08/06 05:30:10;;;;;;;1.73;1.10;;;13.70;99.90;;;;;;5030838;28;20468;-72
2023/08/06 05:32:36;;;;;;;1.60;1.13;;;13.80;99.90;;;;;;5030632;28;20490;-73
2023/08/06 05:35:03;;;;;;;1.00;0.90;;;13.90;99.90;;;;;;5030874;28;20456;-72
2023/08/06 05:37:31;;;;;;;2.10;1.03;;;14.00;99.90;;;;;;5029921;28;21138;-72
2023/08/06 05:39:58;;;;;;;1.20;0.80;;;14.00;99.90;;;;;;5030774;28;20467;-72
2023/08/06 05:42:25;;;;;;;2.30;1.27;;;14.00;99.90;;;;;;5030495;28;20461;-72
2023/08/06 05:44:51;;;;;;;3.33;1.30;;;14.00;99.90;;;;;;5029942;28;20457;-72
2023/08/06 05:47:19;;;;;;;1.67;1.10;;;14.10;99.90;;;;;;5030085;28;20481;-72
2023/08/06 05:49:46;;;;;;;1.52;1.10;;;14.10;99.90;;;;;;5030107;28;20519;-72
2023/08/06 05:52:12;;;;;;;1.77;1.23;;;14.10;99.90;;;;;;5030188;28;20677;-72
2023/08/06 05:54:41;;;;;;;1.53;1.00;;;14.10;99.90;;;;;;5029902;28;20460;-72
2023/08/06 05:57:08;;;;;;;1.30;1.17;;;14.10;99.90;;;;;;5030149;28;20454;-72
2023/08/06 05:59:34;;;;;;;3.67;1.10;;;14.10;99.90;;;;;;5029815;28;21015;-72
2023/08/06 06:02:01;;;;;;;2.50;1.60;;;14.10;99.90;;;;;;5030252;28;20482;-72
2023/08/06 06:04:29;;;;;;;1.00;0.80;;;14.10;99.90;;;;;;5029966;28;20468;-71
2023/08/06 06:06:55;;;;;;;1.00;0.80;;;14.20;99.90;;;;;;5029884;28;20481;-72
2023/08/06 06:09:22;;;;;;;2.17;1.03;;;14.20;99.90;;;;;;5047013;28;20855;-72
2023/08/06 06:11:50;;;;;;;1.17;0.80;;;14.10;99.90;;;;;;5050052;28;20461;-72
2023/08/06 06:14:17;;;;;;;2.20;0.90;;;14.20;99.90;;;;;;5050217;28;20461;-72
2023/08/06 06:16:44;;;;;;;1.20;1.03;;;14.20;99.90;;;;;;5049699;28;20457;-72
2023/08/06 06:19:10;;;;;;;1.00;0.90;;;14.30;99.90;;;;;;5049663;28;21198;-72
2023/08/06 06:21:38;;;;;;;1.00;0.87;;;14.30;99.90;;;;;;5049619;28;20463;-72
2023/08/06 06:24:05;;;;;;;4.57;1.03;;;14.20;99.90;;;;;;5049961;28;20479;-71
2023/08/06 06:26:32;;;;;;;1.27;1.07;;;14.20;99.90;;;;;;5033417;28;20489;-72
2023/08/06 06:29:00;;;;;;;1.23;1.03;;;14.10;99.90;;;;;;5049913;28;20482;-72
2023/08/06 06:31:27;;;;;;;2.13;1.20;;;14.10;99.90;;;;;;5049442;28;21213;-72
2023/08/06 06:33:54;;;;;;;1.90;1.07;;;14.10;99.90;;;;;;5050123;28;20456;-72
2023/08/06 06:36:21;;;;;;;1.37;0.90;;;14.10;99.90;;;;;;5042809;28;20483;-71
2023/08/06 06:38:49;;;;;;;1.27;0.90;;;14.10;99.90;;;;;;5048912;28;20995;-72
2023/08/06 06:41:15;;;;;;;1.00;0.80;;;14.20;99.90;;;;;;5032791;28;20557;-72
2023/08/06 06:43:42;;;;;;;2.40;1.07;;;14.20;99.90;;;;;;5021176;28;20480;-72
2023/08/06 06:46:10;;;;;;;1.20;1.00;;;14.10;99.90;;;;;;5028788;28;20481;-72
2023/08/06 06:48:37;;;;;;;1.43;0.93;;;14.10;99.90;;;;;;5028638;28;20489;-72
2023/08/06 06:51:04;;;;;;;0.97;0.80;;;14.10;99.90;;;;;;5043639;28;20459;-72
2023/08/06 06:53:30;;;;;;;1.37;1.00;;;14.10;99.90;;;;;;5030775;28;20816;-72
2023/08/06 06:56:02;;;;;;;1.00;0.90;;;14.20;99.90;;;;;;5030808;28;20453;-72
2023/08/06 06:58:28;;;;;;;1.90;1.00;;;14.10;99.90;;;;;;5034340;28;20475;-72
2023/08/06 07:00:55;;;;;;;1.23;1.07;;;14.10;99.90;;;;;;5039591;28;20996;-72
2023/08/06 07:03:23;;;;;;;1.03;0.90;;;14.10;99.90;;;;;;5041197;28;20474;-72
2023/08/06 07:05:51;;;;;;;1.57;1.20;;;14.10;99.90;;;;;;5032903;28;20461;-72
2023/08/06 07:08:17;;;;;;;1.13;1.00;;;14.10;99.90;;;;;;5040863;28;21003;-72
2023/08/06 07:10:44;;;;;;;1.33;0.90;;;14.00;99.90;;;;;;5036444;28;20494;-72
2023/08/06 07:13:11;;;;;;;0.93;0.80;;;14.00;99.90;;;;;;5052723;28;20464;-72
2023/08/06 07:15:41;;;;;;;2.10;0.97;;;14.00;99.90;;;;;;5047201;28;20490;-72
2023/08/06 07:18:08;;;;;;;1.00;0.90;;;13.90;99.90;;;;;;5046008;28;20916;-72
2023/08/06 07:20:36;;;;;;;1.60;1.20;;;13.90;99.90;;;;;;5030306;28;20465;-72
2023/08/06 07:23:03;;;;;;;0.83;0.73;;;13.90;99.90;;;;;;5029274;28;20465;-72
2023/08/06 07:25:29;;;;;;;1.30;0.80;;;13.90;99.90;;;;;;5045976;28;20507;-72
2023/08/06 07:27:56;;;;;;;1.00;0.87;;;13.90;99.90;;;;;;5043529;28;20488;-72
2023/08/06 07:30:23;;;;;;;1.93;0.80;;;13.90;99.90;;;;;;5028005;28;20983;-71
2023/08/06 07:32:50;;;;;;;1.47;1.27;;;14.00;99.90;;;;;;5049661;28;20459;-72
2023/08/06 07:35:16;;;;;;;1.30;0.80;;;14.00;99.90;;;;;;5047734;28;20464;-72
2023/08/06 07:37:44;;;;;;;1.00;0.80;;;14.00;99.90;;;;;;5046222;28;20539;-72
2023/08/06 07:40:12;;;;;;;1.10;0.80;;;14.00;99.90;;;;;;5027862;28;20971;-72
2023/08/06 07:42:39;;;;;;;0.80;0.73;;;14.00;99.90;;;;;;5044943;28;20483;-72
2023/08/06 07:45:06;;;;;;;0.80;0.70;;;14.10;99.90;;;;;;5027936;28;20464;-72
2023/08/06 07:47:33;;;;;;;1.30;1.10;;;14.10;99.90;;;;;;5028912;28;20564;-72
2023/08/06 07:50:00;;;;;;;0.70;0.60;;;14.20;99.90;;;;;;5036850;28;20882;-72
2023/08/06 07:52:27;;;;;;;0.80;0.70;;;14.30;99.90;;;;;;5027853;28;20489;-72
2023/08/06 07:54:55;;;;;;;1.00;0.70;;;14.30;99.90;;;;;;5028020;28;20960;-73
2023/08/06 07:57:21;;;;;;;0.80;0.70;;;14.40;99.90;;;;;;5028288;28;20472;-73
2023/08/06 07:59:48;;;;;;;0.97;0.80;;;14.30;99.90;;;;;;5028116;28;20472;-72
2023/08/06 08:02:15;;;;;;;0.80;0.70;;;14.30;99.90;;;;;;5027884;28;20468;-72
2023/08/06 08:04:42;;;;;;;0.70;0.63;;;14.40;99.90;;;;;;5027716;28;20477;-72
2023/08/06 08:07:10;;;;;;;0.80;0.70;;;14.40;99.90;;;;;;5026434;28;20477;-72
2023/08/06 08:09:37;;;;;;;0.77;0.60;;;14.50;99.90;;;;;;5045407;28;20490;-72
2023/08/06 08:12:06;;;;;;;0.70;0.60;;;14.60;99.90;;;;;;5047727;28;20467;-72
2023/08/06 08:14:35;;;;;;;0.90;0.73;;;14.60;99.90;;;;;;5047883;28;21016;-72
2023/08/06 08:17:02;;;;;;;1.80;0.60;;;14.60;99.90;;;;;;5037305;28;20736;-72
2023/08/06 08:19:29;;;;;;;0.80;0.70;;;14.60;99.90;;;;;;5044956;28;20578;-72
2023/08/06 08:21:55;;;;;;;0.90;0.70;;;14.70;99.90;;;;;;5047738;28;20461;-72
2023/08/06 08:24:23;;;;;;;0.80;0.60;;;14.70;99.90;;;;;;5037146;28;20844;-72
2023/08/06 08:26:50;;;;;;;0.70;0.60;;;14.70;99.90;;;;;;5024098;28;20483;-72
2023/08/06 08:29:18;;;;;;;1.40;0.70;;;14.60;99.90;;;;;;5026128;28;20481;-70
2023/08/06 08:31:45;;;;;;;1.00;0.67;;;14.60;99.90;;;;;;5038497;28;20466;-70
2023/08/06 08:34:12;;;;;;;0.80;0.70;;;14.50;99.90;;;;;;5046283;28;20547;-72
2023/08/06 08:36:38;;;;;;;0.70;0.60;;;14.60;99.90;;;;;;5046774;28;20847;-73
2023/08/06 08:39:05;;;;;;;0.70;0.60;;;14.50;99.90;;;;;;5046631;28;20834;-72
2023/08/06 08:41:33;;;;;;;0.70;0.60;;;14.50;99.90;;;;;;5044958;28;20463;-72
2023/08/06 08:44:01;;;;;;;0.73;0.63;;;14.40;99.90;;;;;;5035926;28;20481;-72
2023/08/06 08:46:31;;;;;;;0.80;0.60;;;14.50;99.90;;;;;;5026775;28;20562;-72
2023/08/06 08:49:00;;;;;;;0.90;0.70;;;14.50;99.90;;;;;;5026628;28;20560;-72
2023/08/06 08:51:27;;;;;;;0.90;0.70;;;14.60;99.90;;;;;;5026759;28;20848;-72
2023/08/06 08:53:56;;;;;;;0.80;0.70;;;14.60;99.90;;;;;;5030821;28;20471;-72
2023/08/06 08:56:23;;;;;;;1.50;0.70;;;14.60;99.90;;;;;;5045996;28;20498;-72
2023/08/06 08:58:50;;;;;;;0.80;0.70;;;14.60;99.90;;;;;;5027339;28;20473;-72
2023/08/06 09:01:16;;;;;;;0.70;0.60;;;14.50;99.90;;;;;;5033291;28;20475;-72
2023/08/06 09:03:45;;;;;;;0.80;0.60;;;14.60;99.90;;;;;;5030869;28;20461;-72
2023/08/06 09:06:13;;;;;;;1.03;0.93;;;14.50;99.90;;;;;;5044515;28;20471;-72
2023/08/06 09:08:48;;;;;;;0.80;0.60;;;14.60;99.90;;;;;;5041087;28;20600;-72
2023/08/06 09:11:14;;;;;;;0.80;0.60;;;14.70;99.90;;;;;;5030740;28;20979;-72
2023/08/06 09:13:41;;;;;;;0.77;0.63;;;14.70;99.90;;;;;;5032372;28;20457;-72
2023/08/06 09:16:08;;;;;;;0.80;0.60;;;14.80;99.90;;;;;;5050761;28;20464;-72
2023/08/06 09:18:35;;;;;;;0.70;0.60;;;14.80;99.90;;;;;;5049213;28;20472;-72
2023/08/06 09:21:03;;;;;;;1.20;0.80;;;14.90;99.90;;;;;;5050460;28;20464;-72
2023/08/06 09:23:31;;;;;;;2.83;0.70;;;15.00;99.90;;;;;;5050747;28;20467;-72
2023/08/06 09:25:58;;;;;;;0.70;0.60;;;15.00;99.90;;;;;;5038475;28;20464;-72
2023/08/06 09:28:25;;;;;;;0.80;0.60;;;15.10;99.90;;;;;;5029856;28;20854;-72
2023/08/06 09:30:54;;;;;;;0.83;0.60;;;15.10;99.90;;;;;;5030955;28;20501;-71
2023/08/06 09:33:23;;;;;;;0.77;0.60;;;15.20;99.90;;;;;;5045445;28;20460;-71
2023/08/06 09:35:50;;;;;;;0.80;0.70;;;15.20;99.90;;;;;;5050660;28;20457;-72
2023/08/06 09:38:18;;;;;;;0.73;0.60;;;15.30;99.90;;;;;;5049803;28;20501;-72
2023/08/06 09:40:45;;;;;;;0.83;0.73;;;15.30;99.90;;;;;;5022659;28;21001;-73
2023/08/06 09:43:13;;;;;;;0.77;0.60;;;15.30;99.90;;;;;;5025257;28;20482;-73
2023/08/06 09:45:40;;;;;;;0.80;0.60;;;15.30;99.90;;;;;;5028016;28;20460;-73
2023/08/06 09:48:08;;;;;;;0.80;0.67;;;15.20;99.90;;;;;;5029581;28;20560;-72
2023/08/06 09:50:37;;;;;;;0.80;0.70;;;15.20;99.90;;;;;;5030463;28;20461;-72
2023/08/06 09:53:05;;;;;;;0.93;0.80;;;15.20;99.90;;;;;;5030787;28;20464;-73
2023/08/06 09:55:33;;;;;;;0.80;0.60;;;15.30;99.90;;;;;;5045144;28;20976;-72
2023/08/06 09:58:00;;;;;;;2.40;0.70;;;15.20;99.90;;;;;;5026948;28;20471;-73
2023/08/06 10:00:28;;;;;;;0.80;0.70;;;15.30;99.90;;;;;;5030587;28;20460;-72
2023/08/06 10:02:56;;;;;;;0.80;0.60;;;15.20;99.90;;;;;;5029908;28;20485;-73
2023/08/06 10:05:23;;;;;;;0.80;0.70;;;15.10;99.90;;;;;;5029841;28;20821;-72
2023/08/06 10:07:51;;;;;;;0.80;0.60;;;15.10;99.90;;;;;;5047765;28;21054;-71
2023/08/06 10:10:19;;;;;;;0.90;0.60;;;15.10;99.90;;;;;;5039942;28;20469;-71
2023/08/06 10:12:51;;;;;;;0.80;0.70;;;15.20;99.90;;;;;;5030355;28;20463;-71
2023/08/06 10:15:22;;;;;;;0.80;0.67;;;15.10;99.90;;;;;;5029862;28;20497;-72
2023/08/06 10:17:52;;;;;;;0.70;0.60;;;15.10;99.90;;;;;;5029504;28;20453;-71
2023/08/06 10:20:21;;;;;;;0.80;0.60;;;15.00;99.90;;;;;;5029872;28;20490;-71
2023/08/06 10:23:01;;;;;;;0.80;0.60;;;15.10;99.90;;;;;;5030173;28;20461;-72
2023/08/06 10:25:33;;;;;;;1.27;0.70;;;15.10;99.90;;;;;;5029647;28;20465;-71
2023/08/06 10:28:08;;;;;;;1.00;0.80;;;15.10;99.90;;;;;;5029977;28;20501;-72
2023/08/06 10:30:42;;;;;;;0.80;0.60;;;15.10;99.90;;;;;;5038039;28;20457;-71
2023/08/06 10:33:09;;;;;;;0.80;0.60;;;15.10;99.90;;;;;;5029996;28;20465;-71
2023/08/06 10:35:38;;;;;;;0.90;0.70;;;15.00;99.90;;;;;;5030307;28;20465;-71
2023/08/06 10:38:08;;;;;;;0.90;0.70;;;15.10;99.90;;;;;;5037732;28;20505;-71
2023/08/06 10:40:35;;;;;;;0.87;0.70;;;15.00;99.90;;;;;;5030110;28;20984;-71
2023/08/06 10:43:07;;;;;;;2.50;0.80;;;15.10;99.90;;;;;;5029163;28;20469;-71
2023/08/06 10:45:38;;;;;;;0.80;0.70;;;15.10;99.90;;;;;;5036333;28;20539;-70
2023/08/06 10:48:06;;;;;;;0.80;0.70;;;15.10;99.90;;;;;;5030175;28;20861;-70
2023/08/06 10:50:33;;;;;;;0.80;0.60;;;15.10;99.90;;;;;;5037980;28;20477;-70
2023/08/06 10:53:06;;;;;;;1.17;0.70;;;15.20;99.90;;;;;;5037719;28;20544;-70
2023/08/06 10:55:33;;;;;;;0.90;0.70;;;15.30;99.90;;;;;;5028209;28;20517;-70
2023/08/06 10:58:04;;;;;;;0.80;0.70;;;15.30;99.90;;;;;;5028702;28;20485;-70
2023/08/06 11:00:36;;;;;;;1.10;0.70;;;15.30;99.90;;;;;;5044616;28;20553;-70
2023/08/06 11:03:05;;;;;;;0.90;0.70;;;15.40;99.90;;;;;;5046213;28;20517;-70
2023/08/06 11:05:31;;;;;;;0.80;0.70;;;15.50;99.90;;;;;;5028378;28;20975;-70
2023/08/06 11:07:58;;;;;;;0.80;0.60;;;15.50;99.90;;;;;;5027776;28;20842;-72
2023/08/06 11:10:25;;;;;;;0.80;0.70;;;15.50;99.90;;;;;;5028299;28;20459;-72
2023/08/06 11:12:52;;;;;;;1.20;0.70;;;15.50;99.90;;;;;;5028771;28;20462;-72
2023/08/06 11:15:21;;;;;;;0.80;0.60;;;15.40;99.90;;;;;;5028192;28;20458;-72
2023/08/06 11:17:49;;;;;;;1.10;0.80;;;15.40;99.90;;;;;;5027874;28;20471;-72
2023/08/06 11:20:16;;;;;;;0.87;0.70;;;15.30;99.90;;;;;;5028620;28;20454;-72
2023/08/06 11:22:43;;;;;;;0.97;0.83;;;15.30;99.90;;;;;;5027973;28;20450;-72
2023/08/06 11:25:09;;;;;;;0.90;0.70;;;15.30;99.90;;;;;;5028478;28;20460;-72
2023/08/06 11:27:36;;;;;;;0.90;0.70;;;15.20;99.90;;;;;;5024717;28;20490;-71
2023/08/06 11:30:03;;;;;;;1.00;0.70;;;15.00;99.90;;;;;;5027706;28;20480;-71
2023/08/06 11:32:30;;;;;;;1.00;0.80;;;15.00;99.90;;;;;;5027436;28;20471;-71
2023/08/06 11:34:58;;;;;;;0.80;0.70;;;15.00;99.90;;;;;;5027338;28;20492;-71
2023/08/06 11:37:25;;;;;;;0.90;0.80;;;15.10;99.90;;;;;;5027408;28;20463;-71
2023/08/06 11:39:52;;;;;;;1.20;0.80;;;15.10;99.90;;;;;;5025712;28;20490;-71
2023/08/06 11:42:19;;;;;;;1.00;0.90;;;15.00;99.90;;;;;;5028286;28;20557;-71
2023/08/06 11:44:46;;;;;;;2.03;1.10;;;14.90;99.90;;;;;;5030763;28;20477;-71
2023/08/06 11:47:15;;;;;;;0.87;0.80;;;14.80;99.90;;;;;;5030151;28;20472;-71
2023/08/06 11:49:45;;;;;;;1.30;0.80;;;14.80;99.90;;;;;;5030459;28;20481;-71
2023/08/06 11:52:15;;;;;;;0.90;0.80;;;14.80;99.90;;;;;;5031358;28;20597;-71
2023/08/06 11:54:43;;;;;;;1.00;0.80;;;14.80;99.90;;;;;;5030586;28;20472;-71
2023/08/06 11:57:09;;;;;;;1.03;0.87;;;14.60;99.90;;;;;;5031034;28;20468;-72
2023/08/06 11:59:38;;;;;;;1.73;0.70;;;14.50;99.90;;;;;;5029856;28;20579;-72
2023/08/06 12:02:06;;;;;;;1.00;0.90;;;14.50;99.90;;;;;;5030638;28;20562;-71
2023/08/06 12:04:33;;;;;;;1.50;1.10;;;14.40;99.90;;;;;;5030814;28;20465;-71
2023/08/06 12:07:07;;;;;;;1.40;1.20;;;14.40;99.90;;;;;;5030332;28;20466;-71
2023/08/06 12:09:36;;;;;;;0.90;0.80;;;14.40;99.90;;;;;;5029888;28;20483;-71
2023/08/06 12:12:03;;;;;;;1.13;0.87;;;14.40;99.90;;;;;;5030646;28;20472;-71
2023/08/06 12:14:29;;;;;;;1.10;0.90;;;14.50;99.90;;;;;;5030559;28;20468;-71
2023/08/06 12:16:56;;;;;;;2.43;1.10;;;14.60;99.90;;;;;;5030009;28;20473;-71
2023/08/06 12:19:23;;;;;;;1.03;0.93;;;14.70;99.90;;;;;;5029968;28;20478;-71
2023/08/06 12:21:50;;;;;;;1.70;1.00;;;14.80;99.90;;;;;;5030350;28;20462;-71
2023/08/06 12:24:16;;;;;;;1.10;0.90;;;14.80;99.90;;;;;;5029744;28;20468;-71
2023/08/06 12:26:44;;;;;;;1.00;0.90;;;14.70;99.90;;;;;;5029873;28;20559;-71
2023/08/06 12:29:11;;;;;;;1.20;0.80;;;14.70;99.90;;;;;;5025899;28;20488;-72
2023/08/06 12:31:38;;;;;;;1.30;1.20;;;14.70;99.90;;;;;;5029339;28;20520;-72
2023/08/06 12:34:05;;;;;;;1.03;0.90;;;14.70;99.90;;;;;;5026520;28;20480;-72
2023/08/06 12:36:32;;;;;;;1.00;0.90;;;14.70;99.90;;;;;;5030919;28;20462;-72
2023/08/06 12:38:59;;;;;;;1.10;0.90;;;14.80;99.90;;;;;;5030344;28;20483;-72
2023/08/06 12:41:26;;;;;;;1.30;1.00;;;14.90;99.90;;;;;;5044775;28;20836;-72
2023/08/06 12:43:54;;;;;;;1.20;0.90;;;15.10;99.90;;;;;;5050699;28;21002;-72
2023/08/06 12:46:20;;;;;;;1.97;0.90;;;15.20;99.90;;;;;;5038516;28;20517;-72
2023/08/06 12:48:48;;;;;;;1.10;0.87;;;15.30;99.90;;;;;;5030333;28;20517;-71
2023/08/06 12:51:15;;;;;;;1.30;1.00;;;15.30;99.90;;;;;;5031851;28;20465;-72